createdAt,value
2022-12-04T00:01:29.547Z,27.90
2022-12-04T00:03:58.927Z,28.17
2022-12-04T00:06:27.565Z,25.90
2022-12-04T00:08:56.360Z,33.20
2022-12-04T00:11:25.567Z,25.90
2022-12-04T00:13:55.674Z,25.47
2022-12-04T00:16:24.752Z,23.83
2022-12-04T00:18:53.753Z,33.00
2022-12-04T00:21:22.287Z,29.03
2022-12-04T00:23:50.886Z,24.97
2022-12-04T00:26:20.322Z,25.37
2022-12-04T00:28:48.788Z,26.33
2022-12-04T00:31:19.544Z,20.93
2022-12-04T00:33:48.259Z,25.03
2022-12-04T00:36:17.702Z,22.93
2022-12-04T00:38:46.327Z,22.53
2022-12-04T00:41:15.952Z,25.67
2022-12-04T00:43:45.763Z,20.90
2022-12-04T00:46:14.459Z,27.30
2022-12-04T00:48:44.864Z,20.10
2022-12-04T00:51:14.150Z,23.77
2022-12-04T00:53:42.539Z,20.83
2022-12-04T00:56:12.036Z,22.37
2022-12-04T00:58:40.317Z,22.17
2022-12-04T01:01:10.583Z,22.93
2022-12-04T01:03:39.041Z,22.17
2022-12-04T01:06:09.281Z,22.70
2022-12-04T01:08:37.612Z,20.53
2022-12-04T01:11:07.928Z,25.73
2022-12-04T01:13:36.276Z,19.40
2022-12-04T01:16:04.715Z,18.80
2022-12-04T01:18:33.090Z,24.60
2022-12-04T01:21:01.479Z,22.57
2022-12-04T01:23:31.207Z,19.70
2022-12-04T01:26:00.152Z,22.20
2022-12-04T01:28:28.984Z,18.93
2022-12-04T01:31:04.014Z,19.23
2022-12-04T01:33:32.695Z,24.60
2022-12-04T01:36:01.901Z,19.47
2022-12-04T01:38:31.781Z,15.63
2022-12-04T01:41:00.374Z,20.17
2022-12-04T01:43:31.142Z,27.17
2022-12-04T01:45:59.928Z,21.97
2022-12-04T01:48:30.984Z,23.10
2022-12-04T01:51:02.503Z,15.90
2022-12-04T01:53:32.743Z,18.13
2022-12-04T01:56:01.178Z,21.07
2022-12-04T01:58:33.050Z,21.87
2022-12-04T02:01:08.457Z,22.47
2022-12-04T02:03:37.358Z,18.37
2022-12-04T02:06:06.306Z,21.70
2022-12-04T02:08:36.593Z,25.87
2022-12-04T02:11:08.460Z,21.37
2022-12-04T02:13:41.611Z,24.93
2022-12-04T02:16:13.139Z,17.07
2022-12-04T02:18:47.680Z,21.17
2022-12-04T02:21:18.379Z,27.70
2022-12-04T02:23:58.439Z,20.90
2022-12-04T02:26:40.507Z,25.20
2022-12-04T02:29:12.600Z,26.93
2022-12-04T02:31:44.825Z,25.33
2022-12-04T02:34:15.874Z,29.33
2022-12-04T02:36:46.688Z,25.27
2022-12-04T02:39:19.119Z,20.20
2022-12-04T02:41:49.859Z,22.40
2022-12-04T02:44:22.256Z,24.33
2022-12-04T02:46:55.210Z,23.50
2022-12-04T02:49:29.226Z,20.57
2022-12-04T02:51:59.274Z,23.80
2022-12-04T02:54:29.566Z,20.13
2022-12-04T02:56:58.387Z,19.60
2022-12-04T02:59:31.130Z,27.03
2022-12-04T03:02:01.723Z,20.73
2022-12-04T03:04:31.974Z,20.40
2022-12-04T03:07:01.571Z,27.97
2022-12-04T03:09:32.196Z,23.73
2022-12-04T03:12:03.167Z,30.87
2022-12-04T03:14:34.152Z,26.27
2022-12-04T03:17:04.696Z,23.23
2022-12-04T03:19:37.197Z,30.10
2022-12-04T03:22:06.825Z,22.13
2022-12-04T03:24:36.393Z,28.60
2022-12-04T03:27:07.809Z,28.07
2022-12-04T03:29:41.167Z,30.57
2022-12-04T03:32:12.458Z,25.33
2022-12-04T03:34:46.431Z,23.17
2022-12-04T03:37:18.604Z,31.77
2022-12-04T03:39:48.867Z,23.40
2022-12-04T03:42:20.649Z,23.23
2022-12-04T03:44:51.177Z,19.70
2022-12-04T03:47:20.518Z,24.37
2022-12-04T03:49:51.681Z,20.97
2022-12-04T03:52:22.872Z,23.17
2022-12-04T03:54:52.057Z,22.03
2022-12-04T03:57:23.001Z,19.40
2022-12-04T03:59:56.166Z,20.70
2022-12-04T04:02:26.411Z,19.43
2022-12-04T04:04:57.433Z,16.90
2022-12-04T04:07:35.060Z,20.57
2022-12-04T04:10:08.070Z,19.40
2022-12-04T04:12:41.027Z,20.17
2022-12-04T04:15:31.505Z,18.20
2022-12-04T04:18:18.176Z,21.17
2022-12-04T04:21:05.669Z,18.47
2022-12-04T04:23:57.858Z,21.33
2022-12-04T04:26:27.988Z,17.40
2022-12-04T04:28:56.430Z,22.37
2022-12-04T04:31:32.738Z,21.30
2022-12-04T04:34:02.506Z,17.43
2022-12-04T04:36:35.208Z,17.97
2022-12-04T04:39:07.351Z,19.87
2022-12-04T04:41:38.255Z,19.47
2022-12-04T04:44:16.597Z,18.23
2022-12-04T04:46:50.248Z,18.17
2022-12-04T04:49:19.241Z,20.17
2022-12-04T04:51:47.880Z,23.03
2022-12-04T04:54:18.342Z,23.83
2022-12-04T04:56:47.956Z,18.23
2022-12-04T04:59:16.564Z,19.63
2022-12-04T05:01:46.877Z,20.80
2022-12-04T05:04:16.751Z,18.80
2022-12-04T05:06:45.032Z,17.97
2022-12-04T05:09:13.392Z,15.70
2022-12-04T05:11:41.777Z,19.67
2022-12-04T05:14:10.284Z,18.07
2022-12-04T05:16:38.867Z,16.27
2022-12-04T05:19:24.707Z,20.60
2022-12-04T05:21:54.441Z,18.13
2022-12-04T05:24:22.753Z,22.97
2022-12-04T05:26:51.576Z,15.53
2022-12-04T05:29:19.902Z,17.50
2022-12-04T05:31:48.092Z,20.10
2022-12-04T05:34:16.190Z,19.87
2022-12-04T05:36:44.523Z,17.70
2022-12-04T05:39:14.320Z,21.43
2022-12-04T05:41:42.621Z,14.80
2022-12-04T05:44:10.984Z,12.43
2022-12-04T05:46:39.359Z,15.67
2022-12-04T05:49:07.734Z,16.87
2022-12-04T05:51:36.060Z,18.17
2022-12-04T05:54:04.391Z,13.60
2022-12-04T05:56:34.067Z,14.53
2022-12-04T05:59:02.443Z,15.10
2022-12-04T06:01:30.770Z,12.93
2022-12-04T06:03:58.900Z,13.53
2022-12-04T06:06:27.855Z,14.63
2022-12-04T06:08:57.472Z,13.50
2022-12-04T06:11:27.172Z,12.37
2022-12-04T06:13:57.633Z,11.90
2022-12-04T06:16:27.408Z,11.73
2022-12-04T06:18:57.734Z,10.83
2022-12-04T06:21:26.862Z,9.60
2022-12-04T06:23:55.348Z,15.13
2022-12-04T06:26:24.114Z,12.87
2022-12-04T06:28:54.520Z,11.60
2022-12-04T06:31:24.696Z,10.27
2022-12-04T06:33:54.585Z,11.10
2022-12-04T06:36:23.356Z,13.63
2022-12-04T06:38:51.871Z,16.20
2022-12-04T06:41:21.299Z,8.00
2022-12-04T06:43:50.703Z,11.80
2022-12-04T06:46:20.105Z,11.90
2022-12-04T06:48:49.881Z,13.40
2022-12-04T06:51:20.015Z,16.73
2022-12-04T06:53:48.693Z,15.73
2022-12-04T06:56:18.892Z,15.20
2022-12-04T06:58:48.797Z,10.10
2022-12-04T07:01:19.172Z,13.63
2022-12-04T07:03:51.628Z,15.17
2022-12-04T07:06:22.927Z,13.93
2022-12-04T07:08:52.284Z,13.70
2022-12-04T07:11:21.477Z,14.83
2022-12-04T07:13:50.007Z,18.00
2022-12-04T07:16:19.305Z,14.50
2022-12-04T07:18:50.341Z,16.00
2022-12-04T07:21:19.719Z,15.23
2022-12-04T07:23:52.388Z,16.73
2022-12-04T07:26:21.285Z,15.07
2022-12-04T07:28:49.632Z,17.40
2022-12-04T07:31:19.174Z,14.57
2022-12-04T07:33:47.826Z,13.60
2022-12-04T07:36:16.756Z,19.63
2022-12-04T07:38:45.068Z,14.53
2022-12-04T07:41:15.228Z,14.83
2022-12-04T07:43:44.038Z,13.30
2022-12-04T07:46:12.990Z,16.43
2022-12-04T07:48:41.688Z,13.97
2022-12-04T07:51:11.595Z,12.70
2022-12-04T07:53:40.838Z,16.53
2022-12-04T07:56:09.523Z,16.97
2022-12-04T07:58:39.376Z,14.57
2022-12-04T08:01:08.865Z,13.20
2022-12-04T08:03:39.847Z,18.73
2022-12-04T08:06:11.988Z,14.97
2022-12-04T08:08:40.463Z,13.23
2022-12-04T08:11:09.561Z,12.70
2022-12-04T08:13:39.305Z,10.43
2022-12-04T08:16:08.599Z,15.87
2022-12-04T08:18:37.005Z,17.20
2022-12-04T08:21:06.255Z,12.10
2022-12-04T08:23:35.057Z,17.60
2022-12-04T08:26:03.898Z,12.83
2022-12-04T08:28:32.312Z,17.93
2022-12-04T08:31:05.873Z,12.27
2022-12-04T08:33:34.527Z,15.93
2022-12-04T08:36:03.143Z,13.07
2022-12-04T08:38:31.502Z,17.93
2022-12-04T08:41:01.581Z,9.43
2022-12-04T08:43:30.126Z,9.83
2022-12-04T08:45:58.925Z,11.17
2022-12-04T08:48:28.732Z,10.53
2022-12-04T08:50:57.098Z,10.57
2022-12-04T08:53:25.931Z,13.40
2022-12-04T08:55:54.532Z,13.83
2022-12-04T08:58:23.139Z,13.17
2022-12-04T09:00:51.489Z,14.17
2022-12-04T09:03:23.668Z,11.63
2022-12-04T09:06:00.329Z,12.67
2022-12-04T09:08:28.712Z,12.40
2022-12-04T09:10:57.055Z,10.23
2022-12-04T09:13:25.378Z,11.70
2022-12-04T09:15:53.801Z,13.57
2022-12-04T09:18:22.132Z,13.67
2022-12-04T09:20:58.170Z,12.40
2022-12-04T09:23:26.733Z,12.80
2022-12-04T09:25:55.137Z,9.80
2022-12-04T09:28:23.457Z,8.93
2022-12-04T09:30:59.009Z,10.13
2022-12-04T09:33:27.544Z,12.77
2022-12-04T09:35:55.851Z,10.60
2022-12-04T09:38:27.247Z,13.70
2022-12-04T09:40:58.243Z,11.27
2022-12-04T09:43:30.946Z,12.93
2022-12-04T09:46:03.204Z,9.13
2022-12-04T09:48:34.640Z,9.43
2022-12-04T09:51:04.343Z,9.90
2022-12-04T09:53:39.906Z,7.80
2022-12-04T09:56:09.845Z,9.20
2022-12-04T09:58:41.411Z,12.60
2022-12-04T10:01:16.767Z,16.03
2022-12-04T10:03:45.236Z,7.90
2022-12-04T10:06:14.924Z,9.30
2022-12-04T10:08:46.755Z,7.90
2022-12-04T10:11:17.196Z,12.90
2022-12-04T10:14:00.408Z,11.37
2022-12-04T10:16:35.154Z,13.27
2022-12-04T10:19:06.165Z,9.63
2022-12-04T10:21:44.398Z,10.33
2022-12-04T10:24:22.780Z,12.70
2022-12-04T10:26:51.339Z,12.40
2022-12-04T10:29:21.895Z,7.93
2022-12-04T10:31:51.100Z,9.40
2022-12-04T10:34:22.500Z,11.93
2022-12-04T10:36:52.537Z,8.60
2022-12-04T10:39:25.973Z,9.00
2022-12-04T10:41:56.630Z,12.47
2022-12-04T10:44:25.071Z,8.60
2022-12-04T10:46:55.483Z,8.33
2022-12-04T10:49:26.427Z,12.23
2022-12-04T10:51:55.007Z,10.80
2022-12-04T10:54:27.117Z,10.20
2022-12-04T10:56:56.342Z,10.10
2022-12-04T10:59:25.332Z,11.13
2022-12-04T11:01:54.560Z,9.00
2022-12-04T11:04:25.048Z,10.37
2022-12-04T11:07:01.825Z,11.40
2022-12-04T11:09:31.632Z,8.90
2022-12-04T11:12:07.419Z,9.90
2022-12-04T11:14:35.750Z,7.87
2022-12-04T11:17:05.206Z,9.40
2022-12-04T11:19:34.738Z,9.90
2022-12-04T11:22:13.029Z,12.23
2022-12-04T11:24:43.452Z,14.33
2022-12-04T11:27:20.909Z,8.57
2022-12-04T11:29:49.802Z,10.50
2022-12-04T11:32:22.371Z,11.23
2022-12-04T11:34:51.848Z,7.90
2022-12-04T11:37:21.550Z,9.83
2022-12-04T11:39:52.287Z,8.13
2022-12-04T11:42:25.073Z,10.03
2022-12-04T11:44:54.883Z,9.93
2022-12-04T11:47:26.030Z,9.23
2022-12-04T11:50:03.457Z,12.10
2022-12-04T11:52:50.193Z,7.67
2022-12-04T11:55:28.453Z,13.47
2022-12-04T11:58:06.393Z,10.23
2022-12-04T12:00:40.628Z,11.70
2022-12-04T12:03:13.511Z,9.57
2022-12-04T12:05:45.853Z,10.13
2022-12-04T12:08:20.577Z,12.47
2022-12-04T12:10:54.721Z,8.93
2022-12-04T12:13:27.068Z,14.03
2022-12-04T12:16:01.655Z,8.83
2022-12-04T12:18:41.981Z,9.33
2022-12-04T12:21:13.092Z,12.93
2022-12-04T12:24:00.832Z,8.13
2022-12-04T12:26:34.192Z,7.17
2022-12-04T12:29:10.239Z,7.03
2022-12-04T12:31:44.973Z,9.73
2022-12-04T12:34:15.787Z,8.43
2022-12-04T12:36:47.515Z,8.60
2022-12-04T12:39:18.954Z,10.27
2022-12-04T12:41:50.816Z,12.93
2022-12-04T12:44:21.507Z,9.87
2022-12-04T12:46:52.579Z,9.50
2022-12-04T12:49:22.777Z,13.50
2022-12-04T12:51:53.613Z,12.07
2022-12-04T12:54:31.385Z,14.47
2022-12-04T12:57:05.083Z,12.50
2022-12-04T12:59:34.234Z,16.73
2022-12-04T13:02:07.929Z,13.43
2022-12-04T13:04:39.348Z,13.80
2022-12-04T13:07:16.646Z,10.90
2022-12-04T13:09:48.852Z,15.90
2022-12-04T13:12:20.475Z,12.07
2022-12-04T13:14:49.333Z,13.43
2022-12-04T13:17:19.443Z,12.80
2022-12-04T13:19:49.813Z,17.17
2022-12-04T13:22:20.469Z,15.00
2022-12-04T13:24:55.628Z,10.83
2022-12-04T13:27:29.932Z,15.37
2022-12-04T13:30:05.597Z,14.07
2022-12-04T13:32:45.598Z,12.97
2022-12-04T13:35:20.875Z,13.60
2022-12-04T13:37:55.437Z,13.00
2022-12-04T13:40:33.276Z,13.00
2022-12-04T13:43:21.331Z,13.47
2022-12-04T13:45:50.599Z,17.03
2022-12-04T13:48:29.918Z,15.73
2022-12-04T13:51:05.513Z,13.90
2022-12-04T13:53:35.137Z,15.17
2022-12-04T13:56:08.648Z,19.07
2022-12-04T13:58:40.151Z,14.30
2022-12-04T14:01:13.272Z,13.07
2022-12-04T14:03:48.150Z,13.93
2022-12-04T14:06:23.875Z,15.53
2022-12-04T14:08:56.352Z,20.20
2022-12-04T14:11:25.206Z,19.13
2022-12-04T14:13:55.570Z,16.87
2022-12-04T14:16:24.965Z,19.80
2022-12-04T14:18:54.500Z,24.27
2022-12-04T14:21:22.884Z,22.33
2022-12-04T14:23:52.235Z,21.90
2022-12-04T14:26:21.734Z,19.57
2022-12-04T14:28:50.284Z,23.20
2022-12-04T14:31:27.540Z,19.57
2022-12-04T14:33:58.751Z,20.77
2022-12-04T14:36:28.150Z,20.37
2022-12-04T14:39:06.211Z,17.97
2022-12-04T14:41:34.600Z,25.00
2022-12-04T14:44:02.975Z,23.07
2022-12-04T14:46:38.887Z,21.03
2022-12-04T14:49:15.381Z,18.47
2022-12-04T14:51:47.131Z,22.90
2022-12-04T14:54:21.018Z,22.73
2022-12-04T14:56:53.891Z,16.53
2022-12-04T14:59:24.295Z,17.03
2022-12-04T15:01:55.928Z,21.70
2022-12-04T15:04:25.761Z,20.70
2022-12-04T15:06:59.913Z,20.43
2022-12-04T15:09:47.268Z,22.17
2022-12-04T15:12:37.252Z,22.70
2022-12-04T15:15:15.019Z,24.97
2022-12-04T15:17:44.813Z,21.73
2022-12-04T15:20:17.051Z,20.10
2022-12-04T15:22:45.555Z,17.43
2022-12-04T15:25:18.714Z,26.73
2022-12-04T15:27:48.669Z,22.00
2022-12-04T15:30:18.167Z,22.77
2022-12-04T15:32:50.436Z,19.03
2022-12-04T15:35:22.359Z,19.63
2022-12-04T15:37:50.843Z,23.03
2022-12-04T15:40:21.811Z,19.20
2022-12-04T15:42:50.289Z,19.00
2022-12-04T15:45:26.672Z,31.73
2022-12-04T15:47:58.114Z,21.47
2022-12-04T15:50:27.868Z,24.90
2022-12-04T15:53:00.163Z,24.77
2022-12-04T15:55:29.801Z,24.20
2022-12-04T15:57:59.365Z,27.27
2022-12-04T16:00:29.210Z,21.90
2022-12-04T16:02:59.313Z,23.03
2022-12-04T16:05:37.337Z,27.83
2022-12-04T16:08:23.715Z,21.97
2022-12-04T16:11:00.130Z,27.53
2022-12-04T16:13:29.794Z,25.23
2022-12-04T16:16:00.146Z,23.57
2022-12-04T16:18:30.581Z,25.20
2022-12-04T16:20:59.052Z,22.80
2022-12-04T16:23:27.788Z,22.73
2022-12-04T16:25:56.184Z,22.63
2022-12-04T16:28:24.306Z,33.73
2022-12-04T16:30:53.629Z,29.43
2022-12-04T16:33:22.101Z,18.27
2022-12-04T16:35:51.785Z,28.07
2022-12-04T16:38:20.174Z,22.87
2022-12-04T16:40:49.088Z,21.73
2022-12-04T16:43:18.097Z,22.27
2022-12-04T16:45:49.083Z,28.40
2022-12-04T16:48:17.439Z,25.33
2022-12-04T16:50:46.372Z,26.53
2022-12-04T16:53:17.275Z,21.87
2022-12-04T16:55:46.713Z,29.53
2022-12-04T16:58:15.411Z,21.20
2022-12-04T17:00:44.585Z,31.40
2022-12-04T17:03:18.074Z,19.43
2022-12-04T17:05:46.419Z,29.43
2022-12-04T17:08:16.201Z,27.93
2022-12-04T17:10:44.571Z,25.53
2022-12-04T17:13:12.583Z,26.27
2022-12-04T17:15:40.994Z,26.17
2022-12-04T17:18:13.914Z,20.07
2022-12-04T17:20:45.148Z,25.50
2022-12-04T17:23:13.867Z,21.30
2022-12-04T17:25:43.583Z,30.33
2022-12-04T17:28:11.894Z,29.37
2022-12-04T17:30:40.172Z,24.07
2022-12-04T17:33:08.506Z,25.30
2022-12-04T17:35:36.795Z,25.23
2022-12-04T17:38:06.320Z,24.23
2022-12-04T17:40:34.989Z,23.70
2022-12-04T17:43:04.768Z,24.10
2022-12-04T17:45:33.111Z,24.37
2022-12-04T17:48:01.906Z,22.37
2022-12-04T17:50:30.299Z,25.67
2022-12-04T17:52:58.648Z,27.77
2022-12-04T17:55:26.981Z,33.13
2022-12-04T17:57:55.301Z,26.73
2022-12-04T18:00:26.121Z,25.03
2022-12-04T18:02:54.472Z,31.10
2022-12-04T18:05:22.644Z,20.20
2022-12-04T18:07:50.981Z,26.70
2022-12-04T18:10:19.372Z,27.13
2022-12-04T18:12:47.386Z,23.63
2022-12-04T18:15:16.192Z,31.30
2022-12-04T18:17:45.912Z,23.30
2022-12-04T18:20:14.402Z,36.40
2022-12-04T18:22:42.688Z,28.03
2022-12-04T18:25:11.534Z,27.03
2022-12-04T18:27:41.982Z,22.73
2022-12-04T18:30:10.859Z,27.10
2022-12-04T18:32:39.257Z,25.80
2022-12-04T18:35:09.388Z,25.20
2022-12-04T18:37:38.076Z,24.60
2022-12-04T18:40:07.567Z,23.70
2022-12-04T18:42:36.161Z,20.83
2022-12-04T18:45:04.542Z,29.30
2022-12-04T18:47:32.845Z,23.00
2022-12-04T18:50:01.294Z,17.90
2022-12-04T18:52:31.023Z,31.17
2022-12-04T18:54:59.345Z,20.00
2022-12-04T18:57:27.640Z,26.47
2022-12-04T18:59:56.454Z,19.40
2022-12-04T19:02:25.170Z,28.33
2022-12-04T19:04:53.574Z,23.07
2022-12-04T19:07:21.627Z,21.77
2022-12-04T19:12:39.398Z,20.77
2022-12-04T19:15:08.335Z,16.17
2022-12-04T19:17:36.702Z,18.20
2022-12-04T19:20:05.095Z,18.33
2022-12-04T19:22:33.435Z,22.53
2022-12-04T19:25:03.126Z,18.23
2022-12-04T19:27:31.523Z,29.57
2022-12-04T19:29:59.958Z,20.50
2022-12-04T19:32:28.348Z,19.10
2022-12-04T19:34:56.701Z,21.60
2022-12-04T19:37:25.010Z,19.97
2022-12-04T19:39:53.422Z,20.80
2022-12-04T19:42:23.172Z,19.33
2022-12-04T19:44:51.529Z,21.07
2022-12-04T19:47:20.417Z,21.27
2022-12-04T19:49:48.857Z,24.30
2022-12-04T19:52:17.406Z,20.27
2022-12-04T19:54:45.786Z,19.70
2022-12-04T19:57:14.673Z,19.33
2022-12-04T19:59:46.540Z,26.90
2022-12-04T20:02:15.484Z,21.97
2022-12-04T20:04:44.251Z,19.37
2022-12-04T20:07:12.974Z,18.00
2022-12-04T20:09:41.530Z,25.10
2022-12-04T20:12:10.050Z,22.93
2022-12-04T20:14:38.356Z,17.27
2022-12-04T20:17:08.312Z,19.33
2022-12-04T20:19:36.800Z,17.47
2022-12-04T20:22:05.166Z,16.70
2022-12-04T20:24:33.612Z,21.30
2022-12-04T20:27:03.199Z,25.97
2022-12-04T20:29:31.858Z,18.53
2022-12-04T20:32:00.366Z,18.77
2022-12-04T20:34:30.520Z,19.27
2022-12-04T20:36:59.138Z,19.13
2022-12-04T20:39:28.243Z,20.57
2022-12-04T20:41:56.321Z,17.33
2022-12-04T20:44:24.640Z,16.57
2022-12-04T20:46:53.395Z,19.90
2022-12-04T20:49:22.713Z,20.57
2022-12-04T20:51:53.396Z,22.70
2022-12-04T20:54:22.660Z,17.07
2022-12-04T20:56:53.008Z,19.77
2022-12-04T20:59:23.069Z,19.60
2022-12-04T21:01:52.709Z,20.10
2022-12-04T21:04:21.342Z,18.27
2022-12-04T21:06:49.655Z,15.10
2022-12-04T21:09:20.443Z,17.57
2022-12-04T21:11:49.437Z,19.83
2022-12-04T21:14:36.151Z,19.30
2022-12-04T21:17:05.083Z,19.87
2022-12-04T21:19:33.591Z,21.37
2022-12-04T21:22:01.928Z,18.20
2022-12-04T21:24:36.287Z,16.50
2022-12-04T21:27:09.001Z,18.23
2022-12-04T21:29:37.651Z,21.80
2022-12-04T21:32:07.052Z,12.50
2022-12-04T21:34:35.567Z,20.83
2022-12-04T21:37:04.093Z,20.20
2022-12-04T21:39:33.973Z,16.40
2022-12-04T21:42:19.794Z,18.83
2022-12-04T21:44:48.348Z,15.33
2022-12-04T21:47:16.978Z,14.37
2022-12-04T21:49:46.252Z,16.73
2022-12-04T21:52:14.565Z,14.70
2022-12-04T21:54:44.241Z,15.10
2022-12-04T21:57:12.908Z,14.23
2022-12-04T21:59:41.203Z,15.17
2022-12-04T22:02:09.643Z,19.90
2022-12-04T22:04:38.063Z,18.77
2022-12-04T22:07:06.455Z,18.33
2022-12-04T22:09:34.952Z,16.40
2022-12-04T22:12:26.362Z,20.20
2022-12-04T22:14:53.287Z,18.00
2022-12-04T22:17:21.645Z,17.43
2022-12-04T22:19:49.959Z,14.37
2022-12-04T22:22:17.981Z,20.83
2022-12-04T22:24:46.399Z,18.87
2022-12-04T22:27:16.100Z,16.00
2022-12-04T22:29:51.742Z,13.87
2022-12-04T22:32:20.353Z,14.17
2022-12-04T22:34:49.110Z,15.10
2022-12-04T22:37:17.250Z,14.03
2022-12-04T22:39:45.602Z,19.97
2022-12-04T22:42:13.944Z,16.10
2022-12-04T22:44:43.696Z,14.00
2022-12-04T22:47:12.183Z,16.90
2022-12-04T22:49:40.549Z,18.37
2022-12-04T22:52:08.905Z,16.50
2022-12-04T22:54:37.220Z,15.73
2022-12-04T22:57:06.135Z,17.07
2022-12-04T22:59:34.207Z,19.43
2022-12-04T23:02:04.053Z,16.40
2022-12-04T23:04:32.204Z,16.97
2022-12-04T23:07:00.796Z,21.40
2022-12-04T23:09:29.125Z,17.97
2022-12-04T23:11:57.910Z,17.40
2022-12-04T23:14:27.057Z,17.00
2022-12-04T23:16:55.558Z,19.73
2022-12-04T23:19:25.380Z,17.23
2022-12-04T23:21:57.298Z,15.10
2022-12-04T23:24:26.144Z,19.90
2022-12-04T23:26:54.508Z,12.83
2022-12-04T23:29:51.469Z,15.30
2022-12-04T23:32:11.185Z,16.03
2022-12-04T23:34:40.971Z,19.73
2022-12-04T23:37:09.102Z,15.97
2022-12-04T23:39:37.494Z,15.00
2022-12-04T23:42:05.883Z,15.87
2022-12-04T23:44:34.258Z,15.13
2022-12-04T23:47:02.412Z,17.63
2022-12-04T23:49:30.925Z,15.33
2022-12-04T23:52:00.370Z,14.20
2022-12-04T23:54:30.256Z,20.37
2022-12-04T23:56:58.601Z,17.07
2022-12-04T23:59:26.618Z,16.80
